Caribbean Princess — ZCDG8 — position and weather

sailwx.info

Track history (hours):
 
Tides and Currents Weather Stations Pressure Air Temp Water Temp Dewpoint Dewpoint Depression Visibility Wind Speed Wind Dir Waves Ship Positions

Caribbean Princess

Operator: Princess Cruises

Last reported at 2015-Mar-30 23:10 UTC. Time now 2015-Mar-31 11:21 UTC.
Position N 25°35' W 080°01'.

Type: Passenger vessel. MMSI: 310423000.

Date/timePositionNaut miles runAvg speedWind from/ knotsBaromVisibWave heightAir tempDewpointWater temp
2015-Mar-30 23:10N 25°35' W 080°01'1017.3
2015-Mar-30 22:34N 25°45' W 079°59'1514.8
2015-Mar-30 21:33N 26°00' W 080°01'8 8.1
2015-Mar-30 20:33N 26°06' W 080°07'0 0.0
2015-Mar-30 19:32N 26°06' W 080°07'0 0.0
2015-Mar-30 18:23N 26°06' W 080°07'0 0.0
2015-Mar-30 17:28N 26°06' W 080°07'0 0.0
2015-Mar-30 16:23N 26°06' W 080°07'0 0.0
2015-Mar-30 15:31N 26°06' W 080°07'0 0.0
2015-Mar-30 14:30N 26°06' W 080°07'0 0.0
2015-Mar-30 13:31N 26°06' W 080°07'50 7.6
2015-Mar-30 07:00N 26°12' W 079°12'11714.7 030 / 151024.1 5.4 0.520.0 8.827.0
2015-Mar-29 23:00N 25°42' W 077°06'7418.6 010 / 241023.410.8 1.021.511.727.0
2015-Mar-29 19:00N 25°18' W 075°48'17415.8 360 / 241022.610.8 1.026.021.527.0
2015-Mar-29 08:00N 23°30' W 073°18'126 5.3 020 / 271017.510.8 1.524.521.527.0
2015-Mar-28 08:00N 22°06' W 071°36'2512.3 170 / 251016.010.8 1.526.023.127.0
2015-Mar-28 06:00N 22°24' W 071°54'17913.7 140 / 121016.110.8 1.026.021.527.0
2015-Mar-27 17:00N 24°24' W 074°18'14416.0 160 / 261016.910.8 1.025.022.027.0
2015-Mar-27 08:00N 25°36' W 076°36'6318.3 180 / 271014.610.8 1.025.022.027.0
2015-Mar-27 04:31N 25°54' W 077°44'1616.9
2015-Mar-27 03:33N 25°59' W 078°01'3717.7
2015-Mar-27 01:27N 26°11' W 078°40'5017.3
2015-Mar-26 22:33N 26°11' W 079°36'1817.6
2015-Mar-26 21:33N 26°07' W 079°55'1111.1
2015-Mar-26 20:33N 26°06' W 080°07'0 0.1
2015-Mar-26 19:32N 26°06' W 080°07'0 0.0
2015-Mar-26 18:33N 26°06' W 080°07'0 0.0
2015-Mar-26 17:32N 26°06' W 080°07'0 0.0
2015-Mar-26 16:33N 26°06' W 080°07'0 0.0
2015-Mar-26 15:26N 26°06' W 080°07'0 0.0
2015-Mar-26 14:29N 26°06' W 080°07'0 0.0
2015-Mar-26 13:31N 26°06' W 080°07'0 0.0
2015-Mar-26 12:30N 26°06' W 080°07'0 0.0
2015-Mar-26 11:33N 26°06' W 080°07'0 0.0
2015-Mar-26 10:33N 26°06' W 080°07'7 7.4
2015-Mar-26 09:33N 26°05' W 079°59'1818.2
2015-Mar-26 08:34N 25°47' W 079°54'2823.4
2015-Mar-26 07:22N 25°20' W 079°49'2024.1
2015-Mar-26 06:31N 24°60' W 079°45'2223.0
2015-Mar-26 05:33N 24°38' W 079°40'2120.5
2015-Mar-26 04:33N 24°18' W 079°35'33420.2
2015-Mar-25 12:00N 20°54' W 074°48'238 8.2 090 / 151019.010.8 0.524.519.927.0
2015-Mar-24 07:00N 18°42' W 078°18'211 9.6 120 / 81015.110.8 27.022.628.0
2015-Mar-23 09:00N 19°36' W 081°54'28010.2 220 / 71015.110.8 25.022.028.0
2015-Mar-22 05:34N 24°14' W 081°19'9718.1
2015-Mar-22 00:11N 25°21' W 080°02'1518.0
2015-Mar-21 23:22N 25°35' W 080°00'1417.0
2015-Mar-21 22:33N 25°49' W 079°59'1615.7
2015-Mar-21 21:33N 26°05' W 080°02'4 4.0
2015-Mar-21 20:26N 26°06' W 080°07'0 0.0
2015-Mar-21 19:31N 26°06' W 080°07'0 0.0
2015-Mar-21 18:33N 26°06' W 080°07'0 0.0
2015-Mar-21 17:23N 26°06' W 080°07'0 0.0
2015-Mar-21 16:33N 26°06' W 080°07'0 0.0
2015-Mar-21 15:31N 26°06' W 080°07'0 0.0
2015-Mar-21 14:34N 26°06' W 080°07'0 0.0
2015-Mar-21 13:30N 26°06' W 080°07'0 0.0
2015-Mar-21 12:31N 26°06' W 080°07'0 0.0
2015-Mar-21 11:33N 26°06' W 080°07'0 0.2
2015-Mar-21 10:33N 26°06' W 080°07'1010.2
2015-Mar-21 09:33N 26°06' W 079°56'2019.9
2015-Mar-21 08:33N 26°10' W 079°34'2020.4
2015-Mar-21 07:33N 26°14' W 079°12'2120.7
2015-Mar-21 06:33N 26°12' W 078°49'9121.2
2015-Mar-21 02:16N 25°43' W 077°13'  
Track history (hours):
 
Tides and Currents Weather Stations Pressure Air Temp Water Temp Dewpoint Dewpoint Depression Visibility Wind Speed Wind Dir Waves Ship Positions

Caribbean Princess

Operator: Princess Cruises

Last reported at 2015-Mar-30 23:10 UTC. Time now 2015-Mar-31 11:21 UTC.
Position N 25°35' W 080°01'.

Type: Passenger vessel. MMSI: 310423000.

Date/timePositionNaut miles runAvg speedWind from/ knotsBaromVisibWave heightAir tempDewpointWater temp
2015-Mar-30 23:10N 25°35' W 080°01'1017.3
2015-Mar-30 22:34N 25°45' W 079°59'1514.8
2015-Mar-30 21:33N 26°00' W 080°01'8 8.1
2015-Mar-30 20:33N 26°06' W 080°07'0 0.0
2015-Mar-30 19:32N 26°06' W 080°07'0 0.0
2015-Mar-30 18:23N 26°06' W 080°07'0 0.0
2015-Mar-30 17:28N 26°06' W 080°07'0 0.0
2015-Mar-30 16:23N 26°06' W 080°07'0 0.0
2015-Mar-30 15:31N 26°06' W 080°07'0 0.0
2015-Mar-30 14:30N 26°06' W 080°07'0 0.0
2015-Mar-30 13:31N 26°06' W 080°07'50 7.6
2015-Mar-30 07:00N 26°12' W 079°12'11714.7 030 / 151024.1 5.4 0.520.0 8.827.0
2015-Mar-29 23:00N 25°42' W 077°06'7418.6 010 / 241023.410.8 1.021.511.727.0
2015-Mar-29 19:00N 25°18' W 075°48'17415.8 360 / 241022.610.8 1.026.021.527.0
2015-Mar-29 08:00N 23°30' W 073°18'126 5.3 020 / 271017.510.8 1.524.521.527.0
2015-Mar-28 08:00N 22°06' W 071°36'2512.3 170 / 251016.010.8 1.526.023.127.0
2015-Mar-28 06:00N 22°24' W 071°54'17913.7 140 / 121016.110.8 1.026.021.527.0
2015-Mar-27 17:00N 24°24' W 074°18'14416.0 160 / 261016.910.8 1.025.022.027.0
2015-Mar-27 08:00N 25°36' W 076°36'6318.3 180 / 271014.610.8 1.025.022.027.0
2015-Mar-27 04:31N 25°54' W 077°44'1616.9
2015-Mar-27 03:33N 25°59' W 078°01'3717.7
2015-Mar-27 01:27N 26°11' W 078°40'5017.3
2015-Mar-26 22:33N 26°11' W 079°36'1817.6
2015-Mar-26 21:33N 26°07' W 079°55'1111.1
2015-Mar-26 20:33N 26°06' W 080°07'0 0.1
2015-Mar-26 19:32N 26°06' W 080°07'0 0.0
2015-Mar-26 18:33N 26°06' W 080°07'0 0.0
2015-Mar-26 17:32N 26°06' W 080°07'0 0.0
2015-Mar-26 16:33N 26°06' W 080°07'0 0.0
2015-Mar-26 15:26N 26°06' W 080°07'0 0.0
2015-Mar-26 14:29N 26°06' W 080°07'0 0.0
2015-Mar-26 13:31N 26°06' W 080°07'0 0.0
2015-Mar-26 12:30N 26°06' W 080°07'0 0.0
2015-Mar-26 11:33N 26°06' W 080°07'0 0.0
2015-Mar-26 10:33N 26°06' W 080°07'7 7.4
2015-Mar-26 09:33N 26°05' W 079°59'1818.2
2015-Mar-26 08:34N 25°47' W 079°54'2823.4
2015-Mar-26 07:22N 25°20' W 079°49'2024.1
2015-Mar-26 06:31N 24°60' W 079°45'2223.0
2015-Mar-26 05:33N 24°38' W 079°40'2120.5
2015-Mar-26 04:33N 24°18' W 079°35'33420.2
2015-Mar-25 12:00N 20°54' W 074°48'238 8.2 090 / 151019.010.8 0.524.519.927.0
2015-Mar-24 07:00N 18°42' W 078°18'211 9.6 120 / 81015.110.8 27.022.628.0
2015-Mar-23 09:00N 19°36' W 081°54'28010.2 220 / 71015.110.8 25.022.028.0
2015-Mar-22 05:34N 24°14' W 081°19'9718.1
2015-Mar-22 00:11N 25°21' W 080°02'1518.0
2015-Mar-21 23:22N 25°35' W 080°00'1417.0
2015-Mar-21 22:33N 25°49' W 079°59'1615.7
2015-Mar-21 21:33N 26°05' W 080°02'4 4.0
2015-Mar-21 20:26N 26°06' W 080°07'0 0.0
2015-Mar-21 19:31N 26°06' W 080°07'0 0.0
2015-Mar-21 18:33N 26°06' W 080°07'0 0.0
2015-Mar-21 17:23N 26°06' W 080°07'0 0.0
2015-Mar-21 16:33N 26°06' W 080°07'0 0.0
2015-Mar-21 15:31N 26°06' W 080°07'0 0.0
2015-Mar-21 14:34N 26°06' W 080°07'0 0.0
2015-Mar-21 13:30N 26°06' W 080°07'0 0.0
2015-Mar-21 12:31N 26°06' W 080°07'0 0.0
2015-Mar-21 11:33N 26°06' W 080°07'0 0.2
2015-Mar-21 10:33N 26°06' W 080°07'1010.2
2015-Mar-21 09:33N 26°06' W 079°56'2019.9
2015-Mar-21 08:33N 26°10' W 079°34'2020.4
2015-Mar-21 07:33N 26°14' W 079°12'2120.7
2015-Mar-21 06:33N 26°12' W 078°49'9121.2
2015-Mar-21 02:16N 25°43' W 077°13'  

Dump ship's entire track history